createdAt,value
2022-12-03T00:01:51.572Z,84.82
2022-12-03T00:04:20.838Z,89.43
2022-12-03T00:06:50.034Z,103.28
2022-12-03T00:09:19.200Z,126.93
2022-12-03T00:11:50.042Z,110.88
2022-12-03T00:14:19.187Z,114.28
2022-12-03T00:16:48.355Z,170.23
2022-12-03T00:19:17.538Z,155.02
2022-12-03T00:21:46.760Z,148.02
2022-12-03T00:24:16.017Z,169.70
2022-12-03T00:26:45.196Z,118.95
2022-12-03T00:29:15.902Z,115.78
2022-12-03T00:31:45.956Z,122.75
2022-12-03T00:34:15.177Z,106.53
2022-12-03T00:36:44.399Z,102.13
2022-12-03T00:39:13.619Z,117.97
2022-12-03T00:41:42.882Z,146.68
2022-12-03T00:44:12.620Z,138.00
2022-12-03T00:46:43.389Z,154.82
2022-12-03T00:49:12.532Z,127.63
2022-12-03T00:51:41.892Z,139.65
2022-12-03T00:54:11.012Z,118.45
2022-12-03T00:56:40.173Z,157.90
2022-12-03T00:59:09.413Z,122.05
2022-12-03T01:01:38.667Z,142.50
2022-12-03T01:04:09.606Z,139.63
2022-12-03T01:06:38.856Z,139.32
2022-12-03T01:09:08.064Z,119.15
2022-12-03T01:11:40.170Z,157.93
2022-12-03T01:14:10.810Z,148.93
2022-12-03T01:16:41.043Z,171.63
2022-12-03T01:19:16.245Z,178.45
2022-12-03T01:21:46.062Z,160.05
2022-12-03T01:24:15.236Z,157.43
2022-12-03T01:26:45.961Z,165.15
2022-12-03T01:29:15.358Z,109.53
2022-12-03T01:32:01.613Z,150.80
2022-12-03T01:34:32.283Z,99.35
2022-12-03T01:37:01.506Z,132.73
2022-12-03T01:39:30.882Z,97.65
2022-12-03T01:42:00.590Z,99.70
2022-12-03T01:44:31.526Z,107.43
2022-12-03T01:47:03.835Z,110.45
2022-12-03T01:49:41.648Z,117.07
2022-12-03T01:52:14.169Z,100.15
2022-12-03T01:54:46.054Z,140.13
2022-12-03T01:57:23.202Z,125.75
2022-12-03T01:59:53.948Z,145.23
2022-12-03T02:02:25.684Z,169.02
2022-12-03T02:04:57.233Z,162.45
2022-12-03T02:07:28.663Z,126.10
2022-12-03T02:10:00.571Z,166.55
2022-12-03T02:12:33.693Z,191.35
2022-12-03T02:15:03.595Z,151.38
2022-12-03T02:17:33.926Z,172.40
2022-12-03T02:20:07.338Z,217.57
2022-12-03T02:22:45.328Z,221.43
2022-12-03T02:25:22.137Z,257.10
2022-12-03T02:27:51.892Z,199.70
2022-12-03T02:30:24.297Z,190.23
2022-12-03T02:33:09.310Z,208.30
2022-12-03T02:35:39.551Z,160.13
2022-12-03T02:38:12.990Z,194.70
2022-12-03T02:40:45.050Z,167.98
2022-12-03T02:43:15.270Z,198.75
2022-12-03T02:45:46.512Z,141.32
2022-12-03T02:48:18.134Z,166.10
2022-12-03T02:50:50.637Z,174.25
2022-12-03T02:53:22.221Z,142.18
2022-12-03T02:55:55.105Z,213.18
2022-12-03T02:58:25.498Z,206.45
2022-12-03T03:00:55.970Z,247.23
2022-12-03T03:03:29.804Z,180.02
2022-12-03T03:06:00.805Z,229.48
2022-12-03T03:08:32.877Z,191.70
2022-12-03T03:11:04.659Z,228.93
2022-12-03T03:13:35.866Z,202.85
2022-12-03T03:16:05.705Z,218.18
2022-12-03T03:18:35.495Z,215.38
2022-12-03T03:21:04.824Z,204.80
2022-12-03T03:23:36.416Z,203.25
2022-12-03T03:26:09.524Z,181.63
2022-12-03T03:28:42.185Z,211.80
2022-12-03T03:31:14.658Z,275.63
2022-12-03T03:33:47.558Z,192.50
2022-12-03T03:36:17.419Z,243.27
2022-12-03T03:38:46.820Z,273.23
2022-12-03T03:41:18.543Z,284.58
2022-12-03T03:43:48.950Z,415.52
2022-12-03T03:46:20.085Z,460.70
2022-12-03T03:48:52.012Z,434.83
2022-12-03T03:51:21.890Z,495.70
2022-12-03T03:53:51.962Z,555.50
2022-12-03T03:56:24.028Z,520.33
2022-12-03T03:58:53.276Z,452.23
2022-12-03T04:01:22.555Z,476.77
2022-12-03T04:03:52.943Z,515.97
2022-12-03T04:06:22.292Z,431.30
2022-12-03T04:08:51.516Z,344.48
2022-12-03T04:11:39.477Z,327.08
2022-12-03T04:14:08.733Z,379.15
2022-12-03T04:16:43.561Z,337.02
2022-12-03T04:19:13.750Z,322.55
2022-12-03T04:21:59.726Z,313.23
2022-12-03T04:24:28.937Z,293.13
2022-12-03T04:27:20.737Z,185.73
2022-12-03T04:29:49.940Z,98.68
2022-12-03T04:32:37.347Z,219.68
2022-12-03T04:35:28.405Z,191.55
2022-12-03T04:37:57.575Z,211.85
2022-12-03T04:40:43.883Z,99.80
2022-12-03T04:43:14.480Z,169.73
2022-12-03T04:45:43.646Z,155.70
2022-12-03T04:48:12.849Z,201.57
2022-12-03T04:50:42.138Z,173.38
2022-12-03T04:53:13.845Z,109.70
2022-12-03T04:55:42.972Z,107.07
2022-12-03T04:58:14.149Z,111.20
2022-12-03T05:00:43.250Z,100.35
2022-12-03T05:03:12.419Z,66.22
2022-12-03T05:05:41.633Z,101.22
2022-12-03T05:08:10.816Z,72.18
2022-12-03T05:10:40.061Z,82.03
